Time;durP1;ratioP1;P1;durP2;ratioP2;P2;SDS_P1;SDS_P2;PMS_P1;PMS_P2;Temp;Humidity;BMP_temperature;BMP_pressure;BME280_temperature;BME280_humidity;BME280_pressure;Samples;Min_cycle;Max_cycle;Signal;HPM_P1;HPM_P2
2022/04/10 00:00:14;;;;;;;10.98;2.50;;;2.60;99.90;;;;;;5151463;27;20042;-75
2022/04/10 00:02:41;;;;;;;8.77;2.88;;;2.60;99.90;;;;;;5148589;27;20043;-74
2022/04/10 00:05:07;;;;;;;15.90;3.08;;;2.60;99.90;;;;;;5145117;27;20096;-75
2022/04/10 00:07:33;;;;;;;8.65;2.38;;;2.50;99.90;;;;;;5150641;27;20082;-75
2022/04/10 00:09:59;;;;;;;16.90;3.22;;;2.50;99.90;;;;;;5150953;27;20051;-75
2022/04/10 00:12:25;;;;;;;14.73;2.90;;;2.50;99.90;;;;;;5150563;27;20059;-75
2022/04/10 00:14:50;;;;;;;13.88;2.90;;;2.40;99.90;;;;;;5165490;27;20039;-75
2022/04/10 00:17:16;;;;;;;10.15;3.08;;;2.40;99.90;;;;;;5151163;27;20514;-76
2022/04/10 00:19:43;;;;;;;12.18;2.85;;;2.40;99.90;;;;;;5164611;27;20081;-75
2022/04/10 00:22:09;;;;;;;12.90;3.40;;;2.40;99.90;;;;;;5151426;27;20087;-74
2022/04/10 00:24:35;;;;;;;10.85;2.88;;;2.40;99.90;;;;;;5150879;27;20046;-75
2022/04/10 00:27:01;;;;;;;16.55;3.00;;;2.50;99.90;;;;;;5169901;27;20122;-74
2022/04/10 00:29:26;;;;;;;13.48;2.70;;;2.50;99.90;;;;;;5148406;27;20106;-74
2022/04/10 00:31:52;;;;;;;16.75;3.05;;;2.40;99.90;;;;;;5162076;27;20048;-73
2022/04/10 00:34:18;;;;;;;17.45;3.80;;;2.40;99.90;;;;;;5169578;27;20038;-73
2022/04/10 00:36:43;;;;;;;16.63;3.30;;;2.40;99.90;;;;;;5133569;27;20102;-73
2022/04/10 00:39:09;;;;;;;13.30;3.00;;;2.30;99.90;;;;;;5168948;27;20034;-74
2022/04/10 00:41:36;;;;;;;16.10;3.05;;;2.40;99.90;;;;;;5119693;27;20518;-73
2022/04/10 00:44:10;;;;;;;16.35;3.00;;;2.40;99.90;;;;;;5148036;27;20065;-73
2022/04/10 00:46:37;;;;;;;13.05;2.83;;;2.40;99.90;;;;;;5111597;27;20099;-73
2022/04/10 00:49:03;;;;;;;22.67;4.38;;;2.40;99.90;;;;;;5139784;27;20035;-73
2022/04/10 00:51:52;;;;;;;14.95;2.80;;;2.40;99.90;;;;;;5128889;27;20039;-74
2022/04/10 00:54:24;;;;;;;18.67;3.33;;;2.30;99.90;;;;;;5132597;27;20052;-74
2022/04/10 00:56:51;;;;;;;18.05;3.67;;;2.20;99.90;;;;;;5144057;27;20117;-75
2022/04/10 00:59:16;;;;;;;17.38;4.28;;;2.20;99.90;;;;;;5126050;27;20430;-75
2022/04/10 01:01:46;;;;;;;14.60;3.15;;;2.20;99.90;;;;;;5123625;27;20083;-74
2022/04/10 01:04:16;;;;;;;14.55;3.53;;;2.10;99.90;;;;;;5111886;27;20112;-74
2022/04/10 01:06:43;;;;;;;14.88;2.92;;;2.20;99.90;;;;;;5142195;27;20043;-75
2022/04/10 01:09:09;;;;;;;16.75;3.47;;;2.10;99.90;;;;;;5109415;27;20416;-75
2022/04/10 01:11:36;;;;;;;9.98;3.08;;;2.10;99.90;;;;;;5151567;27;20031;-75
2022/04/10 01:14:04;;;;;;;12.70;2.88;;;2.00;99.90;;;;;;5149108;27;20043;-75
2022/04/10 01:16:33;;;;;;;12.13;2.65;;;2.00;99.90;;;;;;5149803;27;20044;-74
2022/04/10 01:19:02;;;;;;;11.20;3.22;;;2.00;99.90;;;;;;5132406;27;20039;-75
2022/04/10 01:21:30;;;;;;;10.85;3.13;;;1.90;99.90;;;;;;5136319;27;20075;-75
2022/04/10 01:23:56;;;;;;;17.13;3.13;;;1.90;99.90;;;;;;5103606;27;20074;-75
2022/04/10 01:26:23;;;;;;;10.65;2.97;;;2.00;99.90;;;;;;5130855;27;20047;-74
2022/04/10 01:29:18;;;;;;;20.17;3.97;;;1.80;99.90;;;;;;5112250;27;20058;-76
2022/04/10 01:31:46;;;;;;;16.90;3.75;;;1.90;99.90;;;;;;5108191;27;20059;-74
2022/04/10 01:34:13;;;;;;;15.75;3.80;;;1.90;99.90;;;;;;5102717;27;20062;-74
2022/04/10 01:36:40;;;;;;;11.20;3.25;;;1.90;99.90;;;;;;5127529;27;20039;-75
2022/04/10 01:39:07;;;;;;;12.48;2.67;;;2.00;99.90;;;;;;5120403;27;20040;-75
2022/04/10 01:41:36;;;;;;;14.88;3.08;;;2.00;99.90;;;;;;5146644;27;20414;-74
2022/04/10 01:44:04;;;;;;;15.82;3.40;;;2.00;99.90;;;;;;5134536;27;20050;-74
2022/04/10 01:46:31;;;;;;;18.45;3.58;;;1.90;99.90;;;;;;5148887;27;20050;-75
2022/04/10 01:48:57;;;;;;;14.82;2.85;;;2.00;99.90;;;;;;5131809;27;20094;-75
2022/04/10 01:51:24;;;;;;;10.68;3.45;;;2.00;99.90;;;;;;5149530;27;20054;-75
2022/04/10 01:53:50;;;;;;;15.18;2.90;;;2.00;99.90;;;;;;5149742;27;20114;-75
2022/04/10 01:56:16;;;;;;;15.52;3.28;;;2.00;99.90;;;;;;5142354;27;20039;-75
2022/04/10 01:58:43;;;;;;;14.27;2.58;;;2.10;99.90;;;;;;5149731;27;20070;-75
2022/04/10 02:01:11;;;;;;;16.48;2.92;;;2.10;99.90;;;;;;5129091;27;20039;-75
2022/04/10 02:03:38;;;;;;;10.65;2.83;;;2.10;99.90;;;;;;5148416;27;20076;-74
2022/04/10 02:06:06;;;;;;;14.82;3.75;;;2.10;99.90;;;;;;5141402;27;20051;-74
2022/04/10 02:08:33;;;;;;;14.77;2.55;;;2.10;99.90;;;;;;5166615;27;20081;-74
2022/04/10 02:10:59;;;;;;;13.77;3.00;;;2.20;99.90;;;;;;5167200;27;20047;-75
2022/04/10 02:13:25;;;;;;;13.82;3.20;;;2.10;99.90;;;;;;5148580;27;20137;-74
2022/04/10 02:15:51;;;;;;;16.10;3.00;;;2.10;99.90;;;;;;5149011;27;20107;-74
2022/04/10 02:18:17;;;;;;;11.65;2.60;;;2.10;99.90;;;;;;5166893;27;20098;-74
2022/04/10 02:20:43;;;;;;;20.58;3.05;;;2.00;99.90;;;;;;5167228;27;20042;-74
2022/04/10 02:23:09;;;;;;;14.55;3.40;;;2.00;99.90;;;;;;5166018;27;20095;-75
2022/04/10 02:25:34;;;;;;;11.45;2.60;;;2.00;99.90;;;;;;5158546;27;20039;-75
2022/04/10 02:28:01;;;;;;;14.70;3.00;;;1.90;99.90;;;;;;5140730;27;20054;-75
2022/04/10 02:30:26;;;;;;;19.00;3.30;;;2.00;99.90;;;;;;5142121;27;20039;-74
2022/04/10 02:32:52;;;;;;;12.30;3.45;;;1.90;99.90;;;;;;5165038;27;20047;-75
2022/04/10 02:35:18;;;;;;;17.90;3.67;;;1.90;99.90;;;;;;5144907;27;20043;-75
2022/04/10 02:37:47;;;;;;;10.95;3.45;;;1.90;99.90;;;;;;5147106;27;20110;-74
2022/04/10 02:40:14;;;;;;;13.45;3.92;;;1.90;99.90;;;;;;5141406;27;20054;-75
2022/04/10 02:42:40;;;;;;;14.98;3.30;;;1.90;99.90;;;;;;5143898;27;20035;-76
2022/04/10 02:45:07;;;;;;;13.93;2.90;;;1.80;99.90;;;;;;5132361;27;20046;-75
2022/04/10 02:47:33;;;;;;;14.50;3.60;;;1.90;99.90;;;;;;5121626;27;20035;-74
2022/04/10 02:49:59;;;;;;;18.23;2.80;;;1.70;99.90;;;;;;5130573;27;20046;-75
2022/04/10 02:52:25;;;;;;;12.73;3.28;;;1.70;99.90;;;;;;5143458;27;20139;-75
2022/04/10 02:54:51;;;;;;;16.88;3.78;;;1.70;99.90;;;;;;5128363;27;20047;-74
2022/04/10 02:57:17;;;;;;;11.82;2.80;;;1.70;99.90;;;;;;5109381;27;20043;-75
2022/04/10 02:59:43;;;;;;;15.93;3.50;;;1.80;99.90;;;;;;5121283;27;20046;-75
2022/04/10 03:02:08;;;;;;;17.00;2.70;;;1.70;99.90;;;;;;5106000;28;20099;-74
2022/04/10 03:04:34;;;;;;;13.80;3.35;;;1.80;99.90;;;;;;5123894;27;20039;-75
2022/04/10 03:07:00;;;;;;;14.73;3.30;;;1.80;99.90;;;;;;5133876;27;20046;-74
2022/04/10 03:09:26;;;;;;;15.90;3.05;;;1.80;99.90;;;;;;5125577;27;20047;-74
2022/04/10 03:11:51;;;;;;;14.52;2.97;;;1.80;99.90;;;;;;5094966;27;20046;-74
2022/04/10 03:14:17;;;;;;;13.68;2.90;;;1.90;99.90;;;;;;5104524;28;20051;-74
2022/04/10 03:16:43;;;;;;;11.65;2.78;;;2.00;99.90;;;;;;5124125;27;20073;-74
2022/04/10 03:19:09;;;;;;;20.30;3.53;;;2.00;99.90;;;;;;5116470;27;20065;-74
2022/04/10 03:21:35;;;;;;;11.52;3.20;;;2.00;99.90;;;;;;5110135;27;20051;-74
2022/04/10 03:24:02;;;;;;;13.48;3.13;;;2.10;99.90;;;;;;5129745;27;20071;-74
2022/04/10 03:26:28;;;;;;;15.00;3.97;;;2.10;99.90;;;;;;5144017;27;20049;-75
2022/04/10 03:28:54;;;;;;;15.30;4.20;;;2.00;99.90;;;;;;5145523;27;20076;-74
2022/04/10 03:31:20;;;;;;;20.23;3.00;;;2.20;99.90;;;;;;5127266;27;20092;-74
2022/04/10 03:33:50;;;;;;;10.40;3.08;;;2.40;99.90;;;;;;5147976;27;20050;-74
2022/04/10 03:36:16;;;;;;;17.52;3.15;;;2.40;99.90;;;;;;5131394;27;20498;-74
2022/04/10 03:38:42;;;;;;;21.05;3.53;;;2.40;99.90;;;;;;5089887;28;20092;-74
2022/04/10 03:41:07;;;;;;;16.83;3.30;;;2.60;99.90;;;;;;5137507;27;20035;-74
2022/04/10 03:43:33;;;;;;;17.33;3.28;;;2.70;99.90;;;;;;5129820;27;20133;-74
2022/04/10 03:45:59;;;;;;;15.38;3.22;;;2.70;99.90;;;;;;5130428;27;20046;-75
2022/04/10 03:48:26;;;;;;;9.32;2.78;;;2.60;99.90;;;;;;5133176;27;20086;-75
2022/04/10 03:50:51;;;;;;;14.27;3.13;;;2.60;99.90;;;;;;5131358;27;20039;-75
2022/04/10 03:53:17;;;;;;;15.68;3.63;;;2.60;99.90;;;;;;5142976;27;20051;-75
2022/04/10 03:55:43;;;;;;;14.40;3.50;;;2.70;99.90;;;;;;5130480;27;20042;-74
2022/04/10 03:58:09;;;;;;;15.50;3.40;;;2.70;99.90;;;;;;5130353;27;20526;-75
2022/04/10 04:00:34;;;;;;;11.25;3.33;;;2.60;99.90;;;;;;5146663;27;20047;-74
2022/04/10 04:03:00;;;;;;;13.93;3.15;;;2.60;99.90;;;;;;5129640;27;20107;-74
2022/04/10 04:05:26;;;;;;;11.20;3.38;;;2.60;99.90;;;;;;5129455;27;20043;-74
2022/04/10 04:07:52;;;;;;;13.10;3.85;;;2.70;99.90;;;;;;5129321;27;20054;-75
2022/04/10 04:10:17;;;;;;;12.27;2.88;;;2.80;99.90;;;;;;5147357;27;20103;-74
2022/04/10 04:12:43;;;;;;;13.88;2.30;;;2.80;99.90;;;;;;5124826;27;20051;-74
2022/04/10 04:15:11;;;;;;;9.57;2.45;;;2.80;99.90;;;;;;5127495;27;20051;-75
2022/04/10 04:17:37;;;;;;;11.05;3.17;;;2.90;99.90;;;;;;5127661;27;20048;-74
2022/04/10 04:20:05;;;;;;;11.32;2.10;;;2.80;99.90;;;;;;5132426;27;20057;-75
2022/04/10 04:22:31;;;;;;;13.88;3.38;;;2.70;99.90;;;;;;5147869;27;20490;-74
2022/04/10 04:24:57;;;;;;;7.28;3.08;;;2.70;99.90;;;;;;5132336;27;20047;-74
2022/04/10 04:27:22;;;;;;;9.13;2.35;;;2.60;99.90;;;;;;5128489;27;20042;-74
2022/04/10 04:29:48;;;;;;;6.90;1.73;;;2.60;99.90;;;;;;5129286;27;20074;-74
2022/04/10 04:32:14;;;;;;;6.70;1.83;;;2.70;99.90;;;;;;5147880;27;20046;-74
2022/04/10 04:34:39;;;;;;;8.63;1.92;;;2.70;99.90;;;;;;5145533;27;20099;-75
2022/04/10 04:37:05;;;;;;;7.65;1.67;;;2.80;99.90;;;;;;5147771;27;20031;-75
2022/04/10 04:39:31;;;;;;;6.47;2.00;;;2.60;99.90;;;;;;5127122;27;20054;-74
2022/04/10 04:41:56;;;;;;;3.95;1.42;;;2.60;99.90;;;;;;5145820;27;20058;-74
2022/04/10 04:44:23;;;;;;;4.82;1.48;;;2.50;99.90;;;;;;5149030;27;20102;-74
2022/04/10 04:46:48;;;;;;;9.07;2.00;;;2.60;99.90;;;;;;5168398;27;20049;-74
2022/04/10 04:49:14;;;;;;;3.92;1.42;;;2.60;99.90;;;;;;5150460;27;20133;-75
2022/04/10 04:51:40;;;;;;;4.72;1.42;;;2.60;99.90;;;;;;5150263;27;20043;-74
2022/04/10 04:54:08;;;;;;;6.22;1.63;;;2.50;99.90;;;;;;5148859;27;20042;-74
2022/04/10 04:56:34;;;;;;;5.47;1.50;;;2.40;99.90;;;;;;5147940;27;20130;-75
2022/04/10 04:59:00;;;;;;;5.05;1.50;;;2.40;99.90;;;;;;5149045;27;20070;-75
2022/04/10 05:01:26;;;;;;;5.80;2.05;;;2.30;99.90;;;;;;5149052;27;20462;-75
2022/04/10 05:03:51;;;;;;;10.93;2.65;;;2.30;99.90;;;;;;5148996;27;20046;-75
2022/04/10 05:06:17;;;;;;;6.78;1.88;;;2.30;99.90;;;;;;5167486;27;20039;-75
2022/04/10 05:08:46;;;;;;;7.93;2.03;;;2.20;99.90;;;;;;5148948;27;20043;-75
2022/04/10 05:11:13;;;;;;;8.65;2.00;;;2.20;99.90;;;;;;5148242;27;20095;-74
2022/04/10 05:13:39;;;;;;;5.93;1.83;;;2.20;99.90;;;;;;5148279;27;20047;-75
2022/04/10 05:16:05;;;;;;;6.43;2.35;;;2.20;99.90;;;;;;5167642;27;20034;-75
2022/04/10 05:18:31;;;;;;;6.28;1.65;;;2.20;99.90;;;;;;5150111;27;20046;-74
2022/04/10 05:20:57;;;;;;;7.85;1.90;;;2.20;99.90;;;;;;5168421;27;20106;-75
2022/04/10 05:23:22;;;;;;;9.07;1.95;;;2.30;99.90;;;;;;5149253;27;20049;-75
2022/04/10 05:25:50;;;;;;;8.60;2.50;;;2.40;99.90;;;;;;5132706;27;20045;-75
2022/04/10 05:28:15;;;;;;;7.82;1.70;;;2.40;99.90;;;;;;5148750;27;20061;-75
2022/04/10 05:30:42;;;;;;;6.40;1.70;;;2.60;99.90;;;;;;5148311;27;20039;-74
2022/04/10 05:33:08;;;;;;;5.90;1.58;;;2.60;99.90;;;;;;5148409;27;20054;-74
2022/04/10 05:35:34;;;;;;;4.88;1.90;;;2.50;99.90;;;;;;5148564;27;20102;-74
2022/04/10 05:38:01;;;;;;;6.30;1.83;;;2.70;99.90;;;;;;5148899;27;20081;-74
2022/04/10 05:40:26;;;;;;;10.50;2.08;;;2.70;99.90;;;;;;5162836;27;20054;-74
2022/04/10 05:42:52;;;;;;;13.05;2.35;;;2.70;99.90;;;;;;5146635;27;20047;-74
2022/04/10 05:45:18;;;;;;;6.78;2.13;;;2.80;99.90;;;;;;5144974;27;20039;-74
2022/04/10 05:47:44;;;;;;;5.35;1.80;;;2.80;99.90;;;;;;5144863;27;20106;-75
2022/04/10 05:50:12;;;;;;;8.35;2.03;;;2.80;99.90;;;;;;5144525;27;20063;-75
2022/04/10 05:52:43;;;;;;;6.13;1.88;;;2.80;99.90;;;;;;5160940;27;20047;-75
2022/04/10 05:55:10;;;;;;;5.03;1.75;;;2.80;99.90;;;;;;5161783;27;20134;-74
2022/04/10 05:57:36;;;;;;;10.15;1.75;;;2.80;99.90;;;;;;5145830;27;20074;-74
2022/04/10 06:00:05;;;;;;;6.43;1.90;;;2.80;99.90;;;;;;5162829;27;20034;-74
2022/04/10 06:02:31;;;;;;;8.85;2.10;;;2.90;99.90;;;;;;5127793;27;20075;-74
2022/04/10 06:04:57;;;;;;;7.70;2.28;;;2.90;99.90;;;;;;5141552;27;20084;-75
2022/04/10 06:07:23;;;;;;;5.78;1.88;;;3.00;99.90;;;;;;5146183;27;20043;-74
2022/04/10 06:09:49;;;;;;;9.18;2.05;;;3.10;99.90;;;;;;5145440;27;20491;-74
2022/04/10 06:12:15;;;;;;;5.60;2.17;;;3.20;99.90;;;;;;5144110;27;20043;-76
2022/04/10 06:14:41;;;;;;;8.52;2.33;;;3.10;99.90;;;;;;5142176;27;20077;-75
2022/04/10 06:17:09;;;;;;;7.82;2.20;;;3.20;99.90;;;;;;5144200;27;20039;-75
2022/04/10 06:19:35;;;;;;;11.18;2.70;;;3.20;99.90;;;;;;5143792;27;20130;-76
2022/04/10 06:22:01;;;;;;;8.32;2.42;;;3.30;99.90;;;;;;5143753;27;20043;-75
2022/04/10 06:24:27;;;;;;;10.25;2.30;;;3.40;99.90;;;;;;5142803;27;20067;-75
2022/04/10 06:26:56;;;;;;;8.13;2.55;;;3.50;99.90;;;;;;5144543;27;20055;-75
2022/04/10 06:29:22;;;;;;;12.85;2.15;;;3.60;99.90;;;;;;5146178;27;20122;-74
2022/04/10 06:31:48;;;;;;;11.52;2.30;;;3.80;99.90;;;;;;5160964;27;20069;-75
2022/04/10 06:34:15;;;;;;;5.70;2.05;;;4.20;99.90;;;;;;5142257;27;20145;-75
2022/04/10 06:36:41;;;;;;;7.13;1.90;;;4.20;99.90;;;;;;5141433;27;20047;-75
2022/04/10 06:39:07;;;;;;;6.35;1.85;;;4.30;99.90;;;;;;5141631;27;20047;-75
2022/04/10 06:41:33;;;;;;;4.72;1.80;;;4.40;99.90;;;;;;5162761;27;20054;-74
2022/04/10 06:43:59;;;;;;;6.75;1.50;;;4.40;99.90;;;;;;5145393;27;20043;-74
2022/04/10 06:46:26;;;;;;;4.38;1.50;;;4.30;99.90;;;;;;5147553;27;20154;-75
2022/04/10 06:48:53;;;;;;;6.35;1.58;;;4.40;99.90;;;;;;5147289;27;20057;-75
2022/04/10 06:51:19;;;;;;;6.82;2.42;;;4.40;99.90;;;;;;5136897;27;20035;-75
2022/04/10 06:53:45;;;;;;;9.27;1.85;;;4.40;99.90;;;;;;5164418;27;20047;-75
2022/04/10 06:56:11;;;;;;;8.23;1.90;;;4.40;99.90;;;;;;5146682;27;20059;-74
2022/04/10 06:58:36;;;;;;;6.72;2.05;;;4.50;99.90;;;;;;5129881;27;20050;-74
2022/04/10 07:01:03;;;;;;;6.03;1.90;;;4.40;99.90;;;;;;5146901;27;20035;-74
2022/04/10 07:03:29;;;;;;;8.50;2.08;;;4.50;99.90;;;;;;5146560;27;20043;-77
2022/04/10 07:05:54;;;;;;;6.65;2.50;;;4.60;99.90;;;;;;5146613;27;20555;-74
2022/04/10 07:08:20;;;;;;;7.20;2.33;;;4.80;99.90;;;;;;5146245;27;20058;-76
2022/04/10 07:10:46;;;;;;;8.35;2.10;;;4.80;99.90;;;;;;5146402;27;20053;-77
2022/04/10 07:13:19;;;;;;;4.95;1.67;;;4.80;99.90;;;;;;5128535;27;20049;-78
2022/04/10 07:15:46;;;;;;;6.35;1.95;;;4.90;99.90;;;;;;5147145;27;20067;-77
2022/04/10 07:18:12;;;;;;;8.80;2.00;;;4.90;99.90;;;;;;5127479;27;20042;-76
2022/04/10 07:20:37;;;;;;;8.82;1.83;;;4.90;99.90;;;;;;5147932;27;20042;-76
2022/04/10 07:25:47;;;;;;;5.72;1.50;;;5.10;99.90;;;;;;5163377;27;20398;-74
2022/04/10 07:28:13;;;;;;;4.55;2.00;;;5.00;99.90;;;;;;5147240;27;20051;-72
2022/04/10 07:30:39;;;;;;;8.00;1.95;;;4.90;99.90;;;;;;5147175;27;20046;-72
2022/04/10 07:33:05;;;;;;;5.05;1.48;;;4.90;99.90;;;;;;5148007;27;20039;-73
2022/04/10 07:35:31;;;;;;;7.75;1.52;;;4.90;99.90;;;;;;5146153;27;20060;-78
2022/04/10 07:37:56;;;;;;;5.88;1.95;;;4.80;99.90;;;;;;5121492;28;20046;-79
2022/04/10 07:40:22;;;;;;;9.25;2.28;;;4.60;99.90;;;;;;5144682;27;20050;-73
2022/04/10 07:42:48;;;;;;;6.65;2.03;;;4.60;99.90;;;;;;5164985;27;20042;-79
2022/04/10 07:47:59;;;;;;;7.30;2.20;;;4.80;99.90;;;;;;5147510;27;20051;-77
2022/04/10 07:50:25;;;;;;;5.72;1.90;;;5.00;99.90;;;;;;5165221;27;20039;-73
2022/04/10 07:52:52;;;;;;;11.68;2.22;;;5.00;99.90;;;;;;5146181;27;20045;-73
2022/04/10 07:55:18;;;;;;;8.15;2.70;;;5.00;99.90;;;;;;5136853;27;20058;-72
2022/04/10 07:57:43;;;;;;;8.60;2.35;;;5.10;99.90;;;;;;5136647;28;20055;-73
2022/04/10 08:00:11;;;;;;;7.57;1.85;;;5.20;99.90;;;;;;5162836;27;20042;-73
2022/04/10 08:02:42;;;;;;;9.05;2.90;;;5.20;99.90;;;;;;5117891;28;20035;-72
2022/04/10 08:05:08;;;;;;;14.25;2.30;;;5.30;99.90;;;;;;5164235;27;20042;-73
2022/04/10 08:07:33;;;;;;;9.90;1.90;;;5.40;99.90;;;;;;5160859;27;20039;-73
2022/04/10 08:09:59;;;;;;;8.32;3.05;;;5.50;99.90;;;;;;5142584;27;20047;-73
2022/04/10 08:12:25;;;;;;;15.30;2.47;;;5.60;99.90;;;;;;5164850;27;20067;-73
2022/04/10 08:14:51;;;;;;;8.40;2.05;;;5.80;99.90;;;;;;5126598;27;20470;-73
2022/04/10 08:17:16;;;;;;;12.00;3.05;;;6.00;99.90;;;;;;5150194;27;20043;-73
2022/04/10 08:19:42;;;;;;;7.80;2.15;;;6.20;99.90;;;;;;5132430;27;20038;-73
2022/04/10 08:22:08;;;;;;;6.70;2.25;;;6.20;99.90;;;;;;5150171;27;20042;-73
2022/04/10 08:24:33;;;;;;;7.03;2.05;;;6.30;99.90;;;;;;5150691;27;20051;-73
2022/04/10 08:26:59;;;;;;;6.32;1.90;;;6.40;99.90;;;;;;5149624;27;20092;-73
2022/04/10 08:29:25;;;;;;;7.63;2.35;;;6.40;99.90;;;;;;5136041;27;20073;-73
2022/04/10 08:31:51;;;;;;;5.78;2.03;;;6.40;99.90;;;;;;5142861;27;20043;-73
2022/04/10 08:34:17;;;;;;;9.13;1.85;;;6.70;99.90;;;;;;5145971;27;20722;-73
2022/04/10 08:36:43;;;;;;;7.55;2.13;;;6.50;99.90;;;;;;5142815;27;20039;-73
2022/04/10 08:39:09;;;;;;;4.90;1.60;;;6.80;99.90;;;;;;5167097;27;20114;-73
2022/04/10 08:41:37;;;;;;;7.75;2.63;;;7.00;99.90;;;;;;5119963;27;20043;-73
2022/04/10 08:44:05;;;;;;;8.45;2.30;;;7.10;99.90;;;;;;5147176;27;20039;-73
2022/04/10 08:46:33;;;;;;;8.23;1.90;;;7.10;99.90;;;;;;5129862;27;20039;-73
2022/04/10 08:48:59;;;;;;;12.15;2.15;;;7.00;99.90;;;;;;5144440;27;20055;-73
2022/04/10 08:51:27;;;;;;;16.30;3.15;;;7.10;99.90;;;;;;5126284;27;20047;-73
2022/04/10 08:53:56;;;;;;;7.45;1.95;;;7.10;99.90;;;;;;5127501;27;20048;-73
2022/04/10 08:56:23;;;;;;;6.97;1.90;;;6.90;99.90;;;;;;5112149;27;20047;-73
2022/04/10 08:58:49;;;;;;;11.82;2.28;;;7.20;99.90;;;;;;5108216;27;20411;-73
2022/04/10 09:01:19;;;;;;;11.77;2.38;;;7.30;99.90;;;;;;5128178;27;20054;-73
2022/04/10 09:03:49;;;;;;;5.80;2.05;;;7.30;99.90;;;;;;5127429;27;20051;-73
2022/04/10 09:06:14;;;;;;;7.77;2.40;;;7.40;99.90;;;;;;5127199;27;20054;-73
2022/04/10 09:08:41;;;;;;;11.18;2.38;;;7.30;99.90;;;;;;5112172;27;20043;-73
2022/04/10 09:11:08;;;;;;;6.43;1.80;;;7.60;99.90;;;;;;5129255;27;20043;-73
2022/04/10 09:13:43;;;;;;;10.57;1.85;;;7.70;99.90;;;;;;5128426;27;20055;-73
2022/04/10 09:16:24;;;;;;;8.18;2.15;;;7.50;99.90;;;;;;5129379;27;20112;-73
2022/04/10 09:19:09;;;;;;;9.35;1.92;;;7.60;99.90;;;;;;5129221;27;20104;-73
2022/04/10 09:21:40;;;;;;;9.98;2.20;;;7.70;99.90;;;;;;5128373;27;20043;-73
2022/04/10 09:24:13;;;;;;;12.88;2.85;;;7.70;99.90;;;;;;5144666;27;20451;-73
2022/04/10 09:26:48;;;;;;;13.63;2.78;;;7.90;99.90;;;;;;5127954;27;20039;-73
2022/04/10 09:29:17;;;;;;;14.25;1.98;;;7.80;99.90;;;;;;5129131;27;20055;-73
2022/04/10 09:31:43;;;;;;;7.63;1.98;;;8.00;99.90;;;;;;5101705;28;20042;-73
2022/04/10 09:34:13;;;;;;;6.55;1.52;;;7.90;99.90;;;;;;5130925;27;20051;-73
2022/04/10 09:36:43;;;;;;;9.85;2.47;;;7.80;99.90;;;;;;5128767;27;20049;-73
2022/04/10 09:39:10;;;;;;;11.93;3.13;;;7.80;99.90;;;;;;5144695;27;20036;-73
2022/04/10 09:41:37;;;;;;;11.43;2.47;;;7.80;99.90;;;;;;5145955;27;20053;-73
2022/04/10 09:44:19;;;;;;;6.88;1.63;;;7.90;99.90;;;;;;5146714;27;20412;-73
2022/04/10 09:47:00;;;;;;;7.35;1.60;;;8.10;99.90;;;;;;5143803;27;20071;-73
2022/04/10 09:49:29;;;;;;;;;;;8.30;99.90;;;;;;5146176;27;20047;-73
2022/04/10 09:52:10;;;;;;;9.30;1.70;;;8.20;99.90;;;;;;5128085;27;19920;-73
2022/04/10 09:54:44;;;;;;;7.47;2.10;;;8.40;99.90;;;;;;5111669;27;20039;-73
2022/04/10 09:57:18;;;;;;;13.13;2.08;;;8.50;99.90;;;;;;5140222;27;20530;-73
2022/04/10 09:59:48;;;;;;;8.32;2.00;;;8.50;99.90;;;;;;5115877;27;20574;-73
2022/04/10 10:02:15;;;;;;;9.63;2.30;;;8.50;99.90;;;;;;5110334;27;20043;-73
2022/04/10 10:04:43;;;;;;;6.60;1.50;;;8.60;99.90;;;;;;5126985;27;20078;-73
2022/04/10 10:07:17;;;;;;;10.02;2.13;;;8.70;99.90;;;;;;5127254;27;20043;-73
2022/04/10 10:09:44;;;;;;;4.07;1.27;;;8.30;99.90;;;;;;5127446;27;20046;-73
2022/04/10 10:12:11;;;;;;;8.60;1.83;;;8.30;99.90;;;;;;5109432;27;20043;-73
2022/04/10 10:14:38;;;;;;;4.00;1.50;;;8.50;99.90;;;;;;5145429;27;20096;-73
2022/04/10 10:17:05;;;;;;;5.35;1.30;;;8.70;99.90;;;;;;5128264;27;20046;-73
2022/04/10 10:19:37;;;;;;;10.60;2.00;;;8.80;99.90;;;;;;5126268;27;20102;-73
2022/04/10 10:22:06;;;;;;;6.85;1.70;;;8.90;99.90;;;;;;5108099;27;20044;-73
2022/04/10 10:24:53;;;;;;;5.00;1.70;;;8.80;99.90;;;;;;5118039;28;20242;-73
2022/04/10 10:27:48;;;;;;;5.80;1.48;;;8.80;99.90;;;;;;5118655;27;20046;-73
2022/04/10 10:30:25;;;;;;;5.40;1.27;;;8.90;99.90;;;;;;5128009;27;20051;-73
2022/04/10 10:32:57;;;;;;;8.98;1.67;;;8.70;99.90;;;;;;5127169;27;20608;-73
2022/04/10 10:35:31;;;;;;;8.07;2.20;;;8.80;99.90;;;;;;5136880;27;20055;-73
2022/04/10 10:37:57;;;;;;;13.30;2.47;;;8.90;99.90;;;;;;5145949;27;20049;-73
2022/04/10 10:40:23;;;;;;;9.63;2.75;;;8.50;99.90;;;;;;5145804;27;20138;-74
2022/04/10 10:42:50;;;;;;;9.55;1.95;;;8.00;99.90;;;;;;5145114;27;20050;-73
2022/04/10 10:45:40;;;;;;;8.60;2.47;;;7.80;99.90;;;;;;5126432;27;20103;-73
2022/04/10 10:48:31;;;;;;;9.70;2.17;;;7.80;99.90;;;;;;5126231;27;20132;-73
2022/04/10 10:51:22;;;;;;;10.13;2.08;;;8.10;99.90;;;;;;5144070;27;20051;-73
2022/04/10 10:54:00;;;;;;;7.32;1.83;;;8.10;99.90;;;;;;5061007;28;20049;-73
2022/04/10 10:56:36;;;;;;;8.57;2.13;;;8.40;99.90;;;;;;5044271;28;20152;-73
2022/04/10 10:59:24;;;;;;;8.32;1.90;;;8.50;99.90;;;;;;5061067;28;20052;-73
2022/04/10 11:01:54;;;;;;;9.07;2.05;;;8.70;99.90;;;;;;5044967;28;20037;-73
2022/04/10 11:04:24;;;;;;;9.30;2.55;;;8.90;99.90;;;;;;5061311;28;20056;-73
2022/04/10 11:06:50;;;;;;;;;;;9.30;99.90;;;;;;5044492;28;20587;-73
2022/04/10 11:09:30;;;;;;;7.60;2.03;;;9.20;99.90;;;;;;5044287;28;19978;-73
2022/04/10 11:11:58;;;;;;;11.48;1.90;;;9.40;99.90;;;;;;5045155;28;20068;-73
2022/04/10 11:14:39;;;;;;;9.43;1.90;;;9.00;99.90;;;;;;5045039;28;20041;-74
2022/04/10 11:17:13;;;;;;;8.25;2.05;;;9.00;99.90;;;;;;5038403;28;20041;-73
2022/04/10 11:19:39;;;;;;;11.63;2.33;;;9.30;99.90;;;;;;5044451;28;20485;-73
2022/04/10 11:22:07;;;;;;;11.10;2.28;;;9.40;99.90;;;;;;5061474;28;20409;-73
2022/04/10 11:24:34;;;;;;;11.25;2.38;;;9.50;99.90;;;;;;5061578;28;20049;-73
2022/04/10 11:27:04;;;;;;;12.27;2.67;;;9.40;99.90;;;;;;5061332;28;20101;-74
2022/04/10 11:29:31;;;;;;;7.67;2.00;;;9.20;99.90;;;;;;5044127;28;20052;-73
2022/04/10 11:32:03;;;;;;;8.80;1.98;;;9.10;99.90;;;;;;5129536;28;20105;-73
2022/04/10 11:34:29;;;;;;;8.35;1.90;;;9.20;99.90;;;;;;5141442;28;20046;-73
2022/04/10 11:37:01;;;;;;;6.82;2.20;;;9.20;99.90;;;;;;5144815;28;20047;-73
2022/04/10 11:39:28;;;;;;;6.68;1.98;;;9.40;99.90;;;;;;5113078;28;20050;-73
2022/04/10 11:41:58;;;;;;;5.38;1.92;;;9.50;99.90;;;;;;5144227;27;20388;-73
2022/04/10 11:44:26;;;;;;;10.27;1.85;;;9.70;99.90;;;;;;5146964;27;20049;-73
2022/04/10 11:46:51;;;;;;;7.30;1.67;;;10.10;99.90;;;;;;5146932;27;20225;-73
2022/04/10 11:49:21;;;;;;;9.18;1.83;;;10.40;99.90;;;;;;5126013;27;20068;-73
2022/04/10 11:51:51;;;;;;;6.88;1.75;;;9.90;99.90;;;;;;5167750;27;20050;-73
2022/04/10 11:54:43;;;;;;;8.80;1.80;;;9.70;99.90;;;;;;5150451;27;20078;-73
2022/04/10 11:57:09;;;;;;;7.93;2.13;;;9.50;99.90;;;;;;5145908;27;20070;-73
2022/04/10 11:59:39;;;;;;;10.82;2.17;;;9.50;99.90;;;;;;5150903;27;20042;-73
2022/04/10 12:02:08;;;;;;;8.93;2.38;;;9.60;99.90;;;;;;5169734;27;20046;-73
2022/04/10 12:04:36;;;;;;;5.75;2.00;;;9.40;99.90;;;;;;5145493;27;20073;-73
2022/04/10 12:07:20;;;;;;;11.85;2.35;;;9.40;99.90;;;;;;5148073;27;20107;-74
2022/04/10 12:09:48;;;;;;;7.68;2.15;;;9.60;99.90;;;;;;5131441;27;20099;-73
2022/04/10 12:12:16;;;;;;;7.28;1.95;;;9.90;99.90;;;;;;5151284;27;20446;-73
2022/04/10 12:14:41;;;;;;;6.18;2.55;;;10.20;99.90;;;;;;5158126;27;20050;-73
2022/04/10 12:17:11;;;;;;;6.72;2.13;;;10.30;99.90;;;;;;5159547;27;20038;-73
2022/04/10 12:19:37;;;;;;;6.28;1.95;;;10.30;99.90;;;;;;5150509;27;20043;-73
2022/04/10 12:22:08;;;;;;;3.65;1.45;;;10.70;99.90;;;;;;5130856;27;20039;-73
2022/04/10 12:24:37;;;;;;;9.02;1.70;;;10.60;99.90;;;;;;5151015;27;20046;-73
2022/04/10 12:27:06;;;;;;;7.50;2.22;;;10.60;99.90;;;;;;5150555;27;20043;-73
2022/04/10 12:29:37;;;;;;;8.07;1.95;;;10.60;99.90;;;;;;5150216;27;20425;-73
2022/04/10 12:32:04;;;;;;;5.60;1.70;;;11.00;99.90;;;;;;5150436;27;20057;-73
2022/04/10 12:34:33;;;;;;;8.73;1.98;;;11.30;99.90;;;;;;5163681;27;20039;-73
2022/04/10 12:37:13;;;;;;;11.02;2.50;;;11.50;99.90;;;;;;5149731;27;20031;-73
2022/04/10 12:39:39;;;;;;;8.45;2.17;;;11.60;99.90;;;;;;5149279;27;20114;-79
2022/04/10 12:42:22;;;;;;;9.60;2.17;;;11.40;99.90;;;;;;5132444;27;20122;-75
2022/04/10 12:44:59;;;;;;;8.15;2.33;;;10.80;99.90;;;;;;5134698;27;20055;-78
2022/04/10 12:47:45;;;;;;;6.90;1.83;;;10.70;99.90;;;;;;5153798;27;20564;-79
2022/04/10 12:50:18;;;;;;;7.90;1.83;;;10.50;99.90;;;;;;5149091;27;20506;-80
2022/04/10 12:52:44;;;;;;;10.57;2.20;;;10.60;99.90;;;;;;5148670;27;20050;-74
2022/04/10 12:55:38;;;;;;;7.40;1.67;;;10.60;99.90;;;;;;5150121;27;20042;-77
2022/04/10 12:58:07;;;;;;;8.27;1.60;;;10.70;99.90;;;;;;5137564;27;20073;-75
2022/04/10 13:00:34;;;;;;;8.20;1.88;;;10.80;99.90;;;;;;5110066;27;20114;-76
2022/04/10 13:03:25;;;;;;;4.32;1.67;;;11.10;99.90;;;;;;5142232;27;20046;-75